createdAt,value
2022-11-26T00:00:19.276Z,5.90
2022-11-26T00:03:22.009Z,5.80
2022-11-26T00:06:32.679Z,5.07
2022-11-26T00:09:35.271Z,5.63
2022-11-26T00:12:39.285Z,5.57
2022-11-26T00:15:41.856Z,5.70
2022-11-26T00:18:44.686Z,5.83
2022-11-26T00:21:47.322Z,6.20
2022-11-26T00:24:50.460Z,5.50
2022-11-26T00:27:56.900Z,5.73
2022-11-26T00:31:01.998Z,5.83
2022-11-26T00:34:04.633Z,5.27
2022-11-26T00:37:10.186Z,5.50
2022-11-26T00:40:20.730Z,5.20
2022-11-26T00:43:24.676Z,5.50
2022-11-26T00:46:27.356Z,4.90
2022-11-26T00:49:29.991Z,5.90
2022-11-26T00:52:35.285Z,5.90
2022-11-26T00:55:40.020Z,5.47
2022-11-26T00:58:44.042Z,5.27
2022-11-26T01:01:46.861Z,5.37
2022-11-26T01:04:49.577Z,5.47
2022-11-26T01:07:53.474Z,5.87
2022-11-26T01:10:56.355Z,4.97
2022-11-26T01:14:00.827Z,5.40
2022-11-26T01:17:03.521Z,5.90
2022-11-26T01:20:22.811Z,5.83
2022-11-26T01:23:27.928Z,4.80
2022-11-26T01:26:35.423Z,5.70
2022-11-26T01:29:39.425Z,5.20
2022-11-26T01:32:42.022Z,6.13
2022-11-26T01:35:44.697Z,5.73
2022-11-26T01:38:47.420Z,5.07
2022-11-26T01:41:57.125Z,4.90
2022-11-26T01:45:01.127Z,5.60
2022-11-26T01:48:21.768Z,5.40
2022-11-26T01:51:28.017Z,5.07
2022-11-26T01:54:32.116Z,5.13
2022-11-26T01:57:38.484Z,5.07
2022-11-26T02:00:43.239Z,5.60
2022-11-26T02:03:53.892Z,5.60
2022-11-26T02:06:57.905Z,6.47
2022-11-26T02:10:00.796Z,5.10
2022-11-26T02:13:03.674Z,5.23
2022-11-26T02:16:15.434Z,5.23
2022-11-26T02:19:56.164Z,5.13
2022-11-26T02:23:31.464Z,5.57
2022-11-26T02:27:26.552Z,6.17
2022-11-26T02:30:35.102Z,6.27
2022-11-26T02:33:47.063Z,5.30
2022-11-26T02:36:54.303Z,5.80
2022-11-26T02:39:58.043Z,5.30
2022-11-26T02:43:00.716Z,5.43
2022-11-26T02:46:11.415Z,5.80
2022-11-26T02:49:20.006Z,6.73
2022-11-26T02:52:23.525Z,6.20
2022-11-26T02:55:30.311Z,5.20
2022-11-26T02:58:34.568Z,6.43
2022-11-26T03:01:44.849Z,5.97
2022-11-26T03:04:52.292Z,6.10
2022-11-26T03:07:56.091Z,5.83
2022-11-26T03:10:59.035Z,6.47
2022-11-26T03:14:01.693Z,5.80
2022-11-26T03:17:05.704Z,7.23
2022-11-26T03:20:09.630Z,6.70
2022-11-26T03:23:12.318Z,6.63
2022-11-26T03:26:14.966Z,6.43
2022-11-26T03:29:17.631Z,6.97
2022-11-26T03:32:21.608Z,6.40
2022-11-26T03:35:24.598Z,6.33
2022-11-26T03:38:27.344Z,6.17
2022-11-26T03:41:29.968Z,5.90
2022-11-26T03:44:32.825Z,5.40
2022-11-26T03:47:36.914Z,5.70
2022-11-26T03:50:39.527Z,5.87
2022-11-26T03:53:42.179Z,6.60
2022-11-26T03:56:44.792Z,6.07
2022-11-26T03:59:47.438Z,6.30
2022-11-26T04:02:51.513Z,6.20
2022-11-26T04:05:54.254Z,6.73
2022-11-26T04:08:56.897Z,6.63
2022-11-26T04:11:59.508Z,5.60
2022-11-26T04:15:02.189Z,7.13
2022-11-26T04:18:06.260Z,6.63
2022-11-26T04:21:09.748Z,11.60
2022-11-26T04:24:12.393Z,10.83
2022-11-26T04:27:15.098Z,11.73
2022-11-26T04:30:17.753Z,12.40
2022-11-26T04:33:21.771Z,9.57
2022-11-26T04:36:24.397Z,12.33
2022-11-26T04:39:27.061Z,10.27
2022-11-26T04:42:29.716Z,11.33
2022-11-26T04:45:32.348Z,10.27
2022-11-26T04:48:36.365Z,9.03
2022-11-26T04:51:39.022Z,9.37
2022-11-26T04:54:41.615Z,8.80
2022-11-26T04:57:44.620Z,9.17
2022-11-26T05:00:51.006Z,8.30
2022-11-26T05:03:55.370Z,9.80
2022-11-26T05:06:58.209Z,10.00
2022-11-26T05:10:00.878Z,8.33
2022-11-26T05:13:03.509Z,9.20
2022-11-26T05:16:06.753Z,9.23
2022-11-26T05:19:10.772Z,9.07
2022-11-26T05:22:13.403Z,10.40
2022-11-26T05:25:16.072Z,9.67
2022-11-26T05:28:18.758Z,9.50
2022-11-26T05:31:21.471Z,9.60
2022-11-26T05:34:25.699Z,9.93
2022-11-26T05:37:28.424Z,9.80
2022-11-26T05:40:31.063Z,10.37
2022-11-26T05:43:33.810Z,10.13
2022-11-26T05:46:37.107Z,10.00
2022-11-26T05:49:41.088Z,9.73
2022-11-26T05:52:43.690Z,9.83
2022-11-26T05:55:46.329Z,9.87
2022-11-26T05:58:49.022Z,9.30
2022-11-26T06:01:51.728Z,10.00
2022-11-26T06:04:55.771Z,9.40
2022-11-26T06:07:58.461Z,8.90
2022-11-26T06:11:01.145Z,8.87
2022-11-26T06:14:03.793Z,12.07
2022-11-26T06:17:06.429Z,9.87
2022-11-26T06:20:11.758Z,10.47
2022-11-26T06:23:14.465Z,11.57
2022-11-26T06:26:17.120Z,10.40
2022-11-26T06:29:24.814Z,10.17
2022-11-26T06:32:30.451Z,10.30
2022-11-26T06:35:35.139Z,9.93
2022-11-26T06:38:37.822Z,9.63
2022-11-26T06:41:40.561Z,10.17
2022-11-26T06:44:43.163Z,10.70
2022-11-26T06:47:47.627Z,9.87
2022-11-26T06:50:51.982Z,9.50
2022-11-26T06:53:54.645Z,10.13
2022-11-26T06:56:57.461Z,9.63
2022-11-26T07:00:00.080Z,8.90
2022-11-26T07:03:02.733Z,9.53
2022-11-26T07:06:07.185Z,8.63
2022-11-26T07:09:11.461Z,9.03
2022-11-26T07:12:14.083Z,9.03
2022-11-26T07:15:16.740Z,10.20
2022-11-26T07:18:19.408Z,8.87
2022-11-26T07:21:24.697Z,9.30
2022-11-26T07:24:27.488Z,9.70
2022-11-26T07:27:30.140Z,10.17
2022-11-26T07:30:32.773Z,10.77
2022-11-26T07:33:35.423Z,10.23
2022-11-26T07:36:42.959Z,10.80
2022-11-26T07:39:45.612Z,10.87
2022-11-26T07:42:51.922Z,9.93
2022-11-26T07:45:55.963Z,10.93
2022-11-26T07:48:58.867Z,11.87
2022-11-26T07:52:02.851Z,11.07
2022-11-26T07:55:11.020Z,11.53
2022-11-26T07:58:16.163Z,11.27
2022-11-26T08:01:21.164Z,12.53
2022-11-26T08:04:23.830Z,11.97
2022-11-26T08:07:29.547Z,12.87
2022-11-26T08:10:32.366Z,12.73
2022-11-26T08:13:35.009Z,11.93
2022-11-26T08:16:37.928Z,12.70
2022-11-26T08:19:40.611Z,12.00
2022-11-26T08:22:44.575Z,13.93
2022-11-26T08:26:14.047Z,12.47
2022-11-26T08:29:09.763Z,14.33
2022-11-26T08:32:12.425Z,13.70
2022-11-26T08:35:15.225Z,12.87
2022-11-26T08:38:19.171Z,14.53
2022-11-26T08:41:21.835Z,14.63
2022-11-26T08:44:24.588Z,14.57
2022-11-26T08:47:27.218Z,13.77
2022-11-26T08:50:29.929Z,13.43
2022-11-26T08:53:35.476Z,13.47
2022-11-26T08:56:38.227Z,12.90
2022-11-26T08:59:40.844Z,13.03
2022-11-26T09:02:43.512Z,13.20
2022-11-26T09:05:46.180Z,13.43
2022-11-26T09:09:07.366Z,14.43
2022-11-26T09:12:11.507Z,15.07
2022-11-26T09:15:14.205Z,15.80
2022-11-26T09:18:16.893Z,16.40
2022-11-26T09:21:19.916Z,15.93
2022-11-26T09:24:23.961Z,16.93
2022-11-26T09:27:26.595Z,14.37
2022-11-26T09:30:29.247Z,15.53
2022-11-26T09:33:32.580Z,14.53
2022-11-26T09:36:35.268Z,13.73
2022-11-26T09:39:39.263Z,14.37
2022-11-26T09:42:53.796Z,17.57
2022-11-26T09:46:00.778Z,15.17
2022-11-26T09:49:05.512Z,13.60
2022-11-26T09:52:10.393Z,14.10
2022-11-26T09:55:19.786Z,14.30
2022-11-26T09:58:28.731Z,13.57
2022-11-26T10:01:34.102Z,13.90
2022-11-26T10:04:37.534Z,14.10
2022-11-26T10:07:56.090Z,14.80
2022-11-26T10:11:09.063Z,14.20
2022-11-26T10:14:26.364Z,15.67
2022-11-26T10:17:40.870Z,15.03
2022-11-26T10:21:01.697Z,15.20
2022-11-26T10:24:11.140Z,15.23
2022-11-26T10:27:18.256Z,16.70
2022-11-26T10:30:24.728Z,16.40
2022-11-26T10:33:33.617Z,14.70
2022-11-26T10:36:39.212Z,15.00
2022-11-26T10:39:41.833Z,14.90
2022-11-26T10:42:56.502Z,15.00
2022-11-26T10:45:59.182Z,15.17
2022-11-26T10:49:22.897Z,14.43
2022-11-26T10:52:28.403Z,14.70
2022-11-26T10:55:35.340Z,15.60
2022-11-26T10:58:44.064Z,15.73
2022-11-26T11:01:51.719Z,17.63
2022-11-26T11:04:59.124Z,16.97
2022-11-26T11:08:01.783Z,16.90
2022-11-26T11:11:06.047Z,14.50
2022-11-26T11:14:28.319Z,15.60
2022-11-26T11:17:34.017Z,17.57
2022-11-26T11:20:38.592Z,15.80
2022-11-26T11:24:07.266Z,16.60
2022-11-26T11:27:03.879Z,15.67
2022-11-26T11:30:24.382Z,16.03
2022-11-26T11:33:28.662Z,16.70
2022-11-26T11:36:31.310Z,15.47
2022-11-26T11:39:36.261Z,15.13
2022-11-26T11:42:40.391Z,16.33
2022-11-26T11:45:53.279Z,15.90
2022-11-26T11:49:06.935Z,15.60
2022-11-26T11:52:20.171Z,18.07
2022-11-26T11:55:31.130Z,15.17
2022-11-26T11:58:50.832Z,16.70
2022-11-26T12:02:20.304Z,16.90
2022-11-26T12:05:37.296Z,16.63
2022-11-26T12:08:52.572Z,17.40
2022-11-26T12:12:00.019Z,15.07
2022-11-26T12:15:09.136Z,15.80
2022-11-26T12:18:23.991Z,16.20
2022-11-26T12:21:35.764Z,16.40
2022-11-26T12:24:42.017Z,16.67
2022-11-26T12:27:48.871Z,15.30
2022-11-26T12:30:56.584Z,15.43
2022-11-26T12:34:08.835Z,15.77
2022-11-26T12:37:20.326Z,15.90
2022-11-26T12:40:32.571Z,15.47
2022-11-26T12:43:51.007Z,14.43
2022-11-26T12:47:01.520Z,15.40
2022-11-26T12:50:13.923Z,15.70
2022-11-26T12:53:25.238Z,15.87
2022-11-26T12:56:33.972Z,15.20
2022-11-26T12:59:41.044Z,15.23
2022-11-26T13:02:47.227Z,13.87
2022-11-26T13:05:58.666Z,14.70
2022-11-26T13:09:09.108Z,13.63
2022-11-26T13:12:23.435Z,14.50
2022-11-26T13:15:32.805Z,15.10
2022-11-26T13:18:39.949Z,13.97
2022-11-26T13:21:57.088Z,13.93
2022-11-26T13:25:20.001Z,15.20
2022-11-26T13:28:37.082Z,14.20
2022-11-26T13:31:57.311Z,15.03
2022-11-26T13:35:14.535Z,16.60
2022-11-26T13:38:25.759Z,15.73
2022-11-26T13:41:53.220Z,15.77
2022-11-26T13:45:24.745Z,15.13
2022-11-26T13:48:36.149Z,17.07
2022-11-26T13:51:45.843Z,16.53
2022-11-26T13:54:55.147Z,16.50
2022-11-26T13:58:02.224Z,16.03
2022-11-26T14:01:26.850Z,15.20
2022-11-26T14:04:54.575Z,16.03
2022-11-26T14:08:36.565Z,16.30
2022-11-26T14:11:57.072Z,16.80
2022-11-26T14:14:59.755Z,17.40
2022-11-26T14:18:02.380Z,16.90
2022-11-26T14:21:14.900Z,17.40
2022-11-26T14:24:54.360Z,17.23
2022-11-26T14:27:59.063Z,15.93
2022-11-26T14:31:08.912Z,16.90
2022-11-26T14:34:16.594Z,16.67
2022-11-26T14:37:21.646Z,18.07
2022-11-26T14:40:26.926Z,19.03
2022-11-26T14:43:31.165Z,17.63
2022-11-26T14:46:33.889Z,16.77
2022-11-26T14:49:39.563Z,17.63
2022-11-26T14:52:44.215Z,17.27
2022-11-26T14:55:47.011Z,15.97
2022-11-26T14:58:53.857Z,18.37
2022-11-26T15:01:56.519Z,18.33
2022-11-26T15:05:01.045Z,18.77
2022-11-26T15:08:07.098Z,17.33
2022-11-26T15:11:11.513Z,18.70
2022-11-26T15:14:23.006Z,15.20
2022-11-26T15:17:28.529Z,17.20
2022-11-26T15:20:31.255Z,17.53
2022-11-26T15:23:37.856Z,18.20
2022-11-26T15:26:40.480Z,17.53
2022-11-26T15:29:50.879Z,16.97
2022-11-26T15:33:02.068Z,17.17
2022-11-26T15:36:06.040Z,18.27
2022-11-26T15:39:24.101Z,17.63
2022-11-26T15:42:30.541Z,18.30
2022-11-26T15:45:41.432Z,18.87
2022-11-26T15:48:53.391Z,19.17
2022-11-26T15:52:00.391Z,19.63
2022-11-26T15:55:15.667Z,18.47
2022-11-26T15:58:21.900Z,20.50
2022-11-26T16:01:28.352Z,18.20
2022-11-26T16:04:45.041Z,18.93
2022-11-26T16:07:58.135Z,19.33
2022-11-26T16:11:08.825Z,18.33
2022-11-26T16:14:29.613Z,19.43
2022-11-26T16:17:33.868Z,18.57
2022-11-26T16:20:36.497Z,18.07
2022-11-26T16:23:39.226Z,18.93
2022-11-26T16:26:54.857Z,19.33
2022-11-26T16:29:57.765Z,21.60
2022-11-26T16:33:01.743Z,19.93
2022-11-26T16:36:17.698Z,20.40
2022-11-26T16:39:20.340Z,21.87
2022-11-26T16:42:24.465Z,23.10
2022-11-26T16:45:27.050Z,21.70
2022-11-26T16:48:31.069Z,23.43
2022-11-26T16:51:33.836Z,21.13
2022-11-26T16:54:36.465Z,21.47
2022-11-26T16:57:39.308Z,21.47
2022-11-26T17:00:42.149Z,20.90
2022-11-26T17:03:46.442Z,20.37
2022-11-26T17:06:49.263Z,21.13
2022-11-26T17:09:52.591Z,22.40
2022-11-26T17:12:55.278Z,20.97
2022-11-26T17:15:58.585Z,20.83
2022-11-26T17:19:02.560Z,21.17
2022-11-26T17:22:05.391Z,20.80
2022-11-26T17:25:09.878Z,20.83
2022-11-26T17:28:13.465Z,22.83
2022-11-26T17:31:16.198Z,21.43
2022-11-26T17:34:20.273Z,21.30
2022-11-26T17:37:25.439Z,19.90
2022-11-26T17:40:29.536Z,21.27
2022-11-26T17:43:32.135Z,20.50
2022-11-26T17:46:48.071Z,22.07
2022-11-26T17:49:59.056Z,21.73
2022-11-26T17:53:01.640Z,22.30
2022-11-26T17:56:04.359Z,20.70
2022-11-26T17:59:07.039Z,20.37
2022-11-26T18:02:10.367Z,20.97
2022-11-26T18:05:15.061Z,22.50
2022-11-26T18:08:17.697Z,21.13
2022-11-26T18:11:20.410Z,21.90
2022-11-26T18:14:23.989Z,22.37
2022-11-26T18:17:26.913Z,21.83
2022-11-26T18:20:30.956Z,21.60
2022-11-26T18:23:33.891Z,22.80
2022-11-26T18:26:37.399Z,22.10
2022-11-26T18:29:40.382Z,23.23
2022-11-26T18:32:43.355Z,23.30
2022-11-26T18:35:47.293Z,23.10
2022-11-26T18:38:49.989Z,23.20
2022-11-26T18:41:54.577Z,21.97
2022-11-26T18:45:03.520Z,21.67
2022-11-26T18:48:06.528Z,22.23
2022-11-26T18:51:11.907Z,22.07
2022-11-26T18:54:16.567Z,22.20
2022-11-26T18:57:19.211Z,23.40
2022-11-26T19:00:22.386Z,22.10
2022-11-26T19:03:25.911Z,22.73
2022-11-26T19:06:31.776Z,21.87
2022-11-26T19:09:34.395Z,22.70
2022-11-26T19:12:37.092Z,22.87
2022-11-26T19:15:41.437Z,23.17
2022-11-26T19:18:45.083Z,23.57
2022-11-26T19:21:50.200Z,22.60
2022-11-26T19:24:52.801Z,23.27
2022-11-26T19:27:55.422Z,21.83
2022-11-26T19:31:03.297Z,22.80
2022-11-26T19:34:08.955Z,21.60
2022-11-26T19:37:12.899Z,22.53
2022-11-26T19:40:16.129Z,22.30
2022-11-26T19:43:18.867Z,21.90
2022-11-26T19:46:23.756Z,22.07
2022-11-26T19:49:27.619Z,22.23
2022-11-26T19:52:31.564Z,22.97
2022-11-26T19:55:34.190Z,19.97
2022-11-26T19:58:37.847Z,21.77
2022-11-26T20:01:40.692Z,20.17
2022-11-26T20:04:43.469Z,20.17
2022-11-26T20:07:47.466Z,20.23
2022-11-26T20:10:50.260Z,20.93
2022-11-26T20:13:53.149Z,21.50
2022-11-26T20:17:00.737Z,23.63
2022-11-26T20:20:04.381Z,22.97
2022-11-26T20:23:08.868Z,21.77
2022-11-26T20:26:17.029Z,22.43
2022-11-26T20:29:21.844Z,21.93
2022-11-26T20:32:24.469Z,20.10
2022-11-26T20:35:27.070Z,20.67
2022-11-26T20:38:31.029Z,20.80
2022-11-26T20:41:34.457Z,20.03
2022-11-26T20:44:37.097Z,20.80
2022-11-26T20:47:39.920Z,20.30
2022-11-26T20:50:42.520Z,21.17
2022-11-26T20:53:46.889Z,19.53
2022-11-26T20:56:49.516Z,19.53
2022-11-26T20:59:52.175Z,19.53
2022-11-26T21:02:54.814Z,20.37
2022-11-26T21:06:02.582Z,19.33
2022-11-26T21:09:07.374Z,19.03
2022-11-26T21:12:10.010Z,19.83
2022-11-26T21:15:12.916Z,19.67
2022-11-26T21:18:16.193Z,18.40
2022-11-26T21:21:19.336Z,18.00
2022-11-26T21:24:23.443Z,18.53
2022-11-26T21:27:26.052Z,18.70
2022-11-26T21:30:28.700Z,18.90
2022-11-26T21:33:31.396Z,18.43
2022-11-26T21:36:35.719Z,19.20
2022-11-26T21:39:39.932Z,18.80
2022-11-26T21:42:42.682Z,19.50
2022-11-26T21:45:45.380Z,19.80
2022-11-26T21:48:48.067Z,17.73
2022-11-26T21:51:50.706Z,19.33
2022-11-26T21:54:56.592Z,18.33
2022-11-26T21:58:02.720Z,19.60
2022-11-26T22:01:16.507Z,18.27
2022-11-26T22:04:20.684Z,17.50
2022-11-26T22:07:23.370Z,18.20
2022-11-26T22:10:29.767Z,18.47
2022-11-26T22:13:35.902Z,17.93
2022-11-26T22:16:38.594Z,18.77
2022-11-26T22:19:41.789Z,17.23
2022-11-26T22:22:44.566Z,17.13
2022-11-26T22:25:48.536Z,16.77
2022-11-26T22:28:52.244Z,18.33
2022-11-26T22:31:54.871Z,18.13
2022-11-26T22:34:57.480Z,18.13
2022-11-26T22:38:00.187Z,17.33
2022-11-26T22:41:05.054Z,17.53
2022-11-26T22:44:08.273Z,17.33
2022-11-26T22:47:11.284Z,17.83
2022-11-26T22:50:14.216Z,16.37
2022-11-26T22:53:16.958Z,16.80
2022-11-26T22:56:21.528Z,16.80
2022-11-26T22:59:24.162Z,16.83
2022-11-26T23:02:27.610Z,16.60
2022-11-26T23:05:30.255Z,15.87
2022-11-26T23:08:32.912Z,15.83
2022-11-26T23:11:39.722Z,15.77
2022-11-26T23:14:42.350Z,15.97
2022-11-26T23:17:44.978Z,15.87
2022-11-26T23:20:47.786Z,16.67
2022-11-26T23:23:50.812Z,15.00
2022-11-26T23:26:55.019Z,14.87
2022-11-26T23:29:58.321Z,15.30
2022-11-26T23:33:00.959Z,15.33
2022-11-26T23:36:03.731Z,15.87
2022-11-26T23:39:08.325Z,15.23
2022-11-26T23:42:12.312Z,14.57
2022-11-26T23:45:14.939Z,15.23
2022-11-26T23:48:17.991Z,13.87
2022-11-26T23:51:22.909Z,14.83
2022-11-26T23:54:25.667Z,15.67
2022-11-26T23:57:29.631Z,13.87
